Time;durP1;ratioP1;P1;durP2;ratioP2;P2;SDS_P1;SDS_P2;PMS_P1;PMS_P2;Temp;Humidity;BMP_temperature;BMP_pressure;BME280_temperature;BME280_humidity;BME280_pressure;Samples;Min_cycle;Max_cycle;Signal;HPM_P1;HPM_P2
2023/05/30 00:00:57;;;;;;;24.55;4.43;;;;;;;;;;5035977;27;92471;-75
2023/05/30 00:03:24;;;;;;;19.42;3.63;;;;;;;;;;5052251;27;94802;-75
2023/05/30 00:05:51;;;;;;;15.50;3.00;;;;;;;;;;5057415;27;94529;-75
2023/05/30 00:08:17;;;;;;;17.15;2.97;;;;;;;;;;5058253;27;96112;-75
2023/05/30 00:10:44;;;;;;;25.10;3.10;;;;;;;;;;5053997;27;92628;-75
2023/05/30 00:13:10;;;;;;;21.17;4.15;;;;;;;;;;5046249;27;92540;-75
2023/05/30 00:15:37;;;;;;;25.25;4.32;;;;;;;;;;5048889;27;93503;-75
2023/05/30 00:18:05;;;;;;;19.67;3.15;;;;;;;;;;5051165;27;93599;-75
2023/05/30 00:20:33;;;;;;;22.67;3.60;;;;;;;;;;5055318;27;91740;-76
2023/05/30 00:23:00;;;;;;;23.52;3.50;;;;;;;;;;5057768;27;93305;-77
2023/05/30 00:25:27;;;;;;;17.45;3.25;;;;;;;;;;5057399;27;93603;-75
2023/05/30 00:27:53;;;;;;;19.83;3.55;;;;;;;;;;5059461;27;94885;-74
2023/05/30 00:30:20;;;;;;;22.13;3.47;;;;;;;;;;5056841;27;96902;-78
2023/05/30 00:32:46;;;;;;;20.38;3.40;;;;;;;;;;5057252;27;92582;-76
2023/05/30 00:35:12;;;;;;;24.10;5.13;;;;;;;;;;5060051;27;93234;-76
2023/05/30 00:37:39;;;;;;;20.27;3.90;;;;;;;;;;5055799;27;93283;-76
2023/05/30 00:40:06;;;;;;;24.50;4.40;;;;;;;;;;5077262;27;92499;-76
2023/05/30 00:42:32;;;;;;;23.92;3.60;;;;;;;;;;5057736;27;93371;-74
2023/05/30 00:44:59;;;;;;;18.70;3.55;;;;;;;;;;5077330;27;92864;-74
2023/05/30 00:47:26;;;;;;;23.85;3.70;;;;;;;;;;5068779;27;92493;-74
2023/05/30 00:49:53;;;;;;;22.27;3.90;;;;;;;;;;5075871;27;93196;-74
2023/05/30 00:52:20;;;;;;;30.00;3.95;;;;;;;;;;5055506;27;95102;-75
2023/05/30 00:54:47;;;;;;;19.98;3.60;;;;;;;;;;5056606;27;95859;-75
2023/05/30 00:57:14;;;;;;;16.38;3.75;;;;;;;;;;5055113;27;93494;-75
2023/05/30 00:59:41;;;;;;;19.08;3.70;;;;;;;;;;5051927;27;92500;-75
2023/05/30 01:02:07;;;;;;;26.65;3.97;;;;;;;;;;5057073;27;93267;-75
2023/05/30 01:04:34;;;;;;;17.65;3.80;;;;;;;;;;5056686;27;93584;-74
2023/05/30 01:07:00;;;;;;;34.47;4.25;;;;;;;;;;5057363;27;92518;-74
2023/05/30 01:09:27;;;;;;;26.75;3.67;;;;;;;;;;5057618;27;93269;-75
2023/05/30 01:11:58;;;;;;;21.00;4.28;;;;;;;;;;5059991;27;93360;-75
2023/05/30 01:14:36;;;;;;;17.30;4.20;;;;;;;;;;5055629;27;93274;-75
2023/05/30 01:17:23;;;;;;;15.23;3.50;;;;;;;;;;5054995;27;96336;-75
2023/05/30 01:20:09;;;;;;;16.70;3.67;;;;;;;;;;5049097;27;92744;-75
2023/05/30 01:22:50;;;;;;;24.95;4.70;;;;;;;;;;5056653;27;93328;-75
2023/05/30 01:25:35;;;;;;;19.83;3.13;;;;;;;;;;5056788;27;93446;-76
2023/05/30 01:28:06;;;;;;;19.35;3.35;;;;;;;;;;5056920;27;92620;-75
2023/05/30 01:30:35;;;;;;;18.45;4.13;;;;;;;;;;5055808;27;93387;-76
2023/05/30 01:33:03;;;;;;;23.65;3.78;;;;;;;;;;5060073;27;93483;-76
2023/05/30 01:35:29;;;;;;;27.33;4.55;;;;;;;;;;5060059;27;91737;-74
2023/05/30 01:37:56;;;;;;;19.13;4.50;;;;;;;;;;5054735;27;92540;-75
2023/05/30 01:40:24;;;;;;;30.55;4.43;;;;;;;;;;5053798;27;92663;-74
2023/05/30 01:42:54;;;;;;;22.08;3.95;;;;;;;;;;5064302;27;94825;-73
2023/05/30 01:45:27;;;;;;;22.95;4.60;;;;;;;;;;5072511;27;93452;-74
2023/05/30 01:47:58;;;;;;;18.75;3.10;;;;;;;;;;5072916;27;92488;-74
2023/05/30 01:50:28;;;;;;;20.40;3.83;;;;;;;;;;5054983;27;93720;-74
2023/05/30 01:52:57;;;;;;;21.38;3.45;;;;;;;;;;5039979;27;93635;-73
2023/05/30 01:55:25;;;;;;;21.00;3.90;;;;;;;;;;5050192;27;92543;-73
2023/05/30 01:57:52;;;;;;;21.55;4.43;;;;;;;;;;5050760;27;93425;-76
2023/05/30 02:00:19;;;;;;;30.55;3.95;;;;;;;;;;5036266;27;91693;-75
2023/05/30 02:02:46;;;;;;;13.75;3.70;;;;;;;;;;5050532;27;92810;-74
2023/05/30 02:05:12;;;;;;;19.35;4.18;;;;;;;;;;5056461;27;93348;-75
2023/05/30 02:07:39;;;;;;;16.90;3.22;;;;;;;;;;5054202;27;94889;-73
2023/05/30 02:10:06;;;;;;;26.02;4.13;;;;;;;;;;5055878;27;95819;-74
2023/05/30 02:12:32;;;;;;;17.23;3.70;;;;;;;;;;5055641;27;93483;-75
2023/05/30 02:14:59;;;;;;;21.42;3.75;;;;;;;;;;5055830;27;92373;-75
2023/05/30 02:17:26;;;;;;;22.98;4.15;;;;;;;;;;5058527;27;93145;-74
2023/05/30 02:19:52;;;;;;;25.75;4.07;;;;;;;;;;5055607;27;92447;-75
2023/05/30 02:22:18;;;;;;;17.20;3.25;;;;;;;;;;5066291;27;93467;-74
2023/05/30 02:24:45;;;;;;;18.67;3.88;;;;;;;;;;5073858;27;92026;-75
2023/05/30 02:27:11;;;;;;;17.27;3.72;;;;;;;;;;5074940;27;92612;-75
2023/05/30 02:29:37;;;;;;;21.98;4.28;;;;;;;;;;5069223;27;92911;-75
2023/05/30 02:32:04;;;;;;;17.63;3.97;;;;;;;;;;5063678;27;98988;-78
2023/05/30 02:34:31;;;;;;;27.02;4.82;;;;;;;;;;5058302;27;92554;-74
2023/05/30 02:36:59;;;;;;;19.70;4.57;;;;;;;;;;5069745;27;93666;-74
2023/05/30 02:39:25;;;;;;;25.00;4.60;;;;;;;;;;5065717;27;93386;-74
2023/05/30 02:41:52;;;;;;;20.58;3.55;;;;;;;;;;5060016;27;93781;-75
2023/05/30 02:44:18;;;;;;;24.55;4.03;;;;;;;;;;5069647;27;93836;-76
2023/05/30 02:46:44;;;;;;;22.20;3.90;;;;;;;;;;5049080;27;92506;-75
2023/05/30 02:49:11;;;;;;;13.48;4.05;;;;;;;;;;5059314;27;93718;-74
2023/05/30 02:51:37;;;;;;;23.30;4.15;;;;;;;;;;5068541;27;93611;-75
2023/05/30 02:54:04;;;;;;;16.17;3.70;;;;;;;;;;5070441;27;92466;-75
2023/05/30 02:56:30;;;;;;;19.70;3.97;;;;;;;;;;5066019;27;94966;-75
2023/05/30 02:58:59;;;;;;;13.60;3.55;;;;;;;;;;5072867;27;93851;-75
2023/05/30 03:01:25;;;;;;;18.25;4.20;;;;;;;;;;5067104;27;93173;-76
2023/05/30 03:03:52;;;;;;;25.73;4.95;;;;;;;;;;5065083;27;93223;-76
2023/05/30 03:06:19;;;;;;;19.90;3.90;;;;;;;;;;5071766;27;93091;-75
2023/05/30 03:08:55;;;;;;;16.88;3.80;;;;;;;;;;5041718;27;94122;-76
2023/05/30 03:11:21;;;;;;;24.15;4.40;;;;;;;;;;5072700;27;93444;-75
2023/05/30 03:13:48;;;;;;;16.60;3.53;;;;;;;;;;5060208;27;91854;-75
2023/05/30 03:16:14;;;;;;;21.65;4.18;;;;;;;;;;5036722;27;92474;-75
2023/05/30 03:18:41;;;;;;;21.75;4.53;;;;;;;;;;5073343;27;93464;-74
2023/05/30 03:21:08;;;;;;;19.80;4.38;;;;;;;;;;5070843;27;94923;-75
2023/05/30 03:23:34;;;;;;;13.63;3.67;;;;;;;;;;5066685;27;95571;-75
2023/05/30 03:26:01;;;;;;;23.20;4.15;;;;;;;;;;5071271;27;92494;-74
2023/05/30 03:28:27;;;;;;;26.17;5.22;;;;;;;;;;5059638;27;93222;-76
2023/05/30 03:30:56;;;;;;;20.48;4.32;;;;;;;;;;5067864;27;93019;-76
2023/05/30 03:33:22;;;;;;;19.63;3.92;;;;;;;;;;5059683;27;92560;-76
2023/05/30 03:35:49;;;;;;;20.13;4.72;;;;;;;;;;5042277;27;93298;-76
2023/05/30 03:38:15;;;;;;;16.70;4.53;;;;;;;;;;5052423;27;92656;-76
2023/05/30 03:40:42;;;;;;;25.00;4.57;;;;;;;;;;5067710;27;92702;-75
2023/05/30 03:43:08;;;;;;;22.25;4.60;;;;;;;;;;5071656;27;93257;-76
2023/05/30 03:45:34;;;;;;;21.65;4.07;;;;;;;;;;5060906;27;94823;-75
2023/05/30 03:48:01;;;;;;;23.65;4.30;;;;;;;;;;5035165;27;94173;-75
2023/05/30 03:50:27;;;;;;;19.75;4.25;;;;;;;;;;5052174;27;93425;-76
2023/05/30 03:52:54;;;;;;;20.33;4.45;;;;;;;;;;5053145;27;92634;-76
2023/05/30 03:55:21;;;;;;;21.58;4.60;;;;;;;;;;5065987;27;93406;-77
2023/05/30 03:57:47;;;;;;;17.17;4.57;;;;;;;;;;5072127;27;93435;-76
2023/05/30 04:00:14;;;;;;;29.17;4.90;;;;;;;;;;5050224;27;92775;-76
2023/05/30 04:02:40;;;;;;;20.00;4.38;;;;;;;;;;5048891;27;93502;-75
2023/05/30 04:05:07;;;;;;;14.13;4.28;;;;;;;;;;5038720;27;93406;-77
2023/05/30 04:07:35;;;;;;;19.80;4.22;;;;;;;;;;5053643;27;93358;-75
2023/05/30 04:10:03;;;;;;;22.35;4.40;;;;;;;;;;5051827;27;98720;-75
2023/05/30 04:12:29;;;;;;;19.50;4.88;;;;;;;;;;5060296;27;92971;-76
2023/05/30 04:14:56;;;;;;;24.48;4.65;;;;;;;;;;5074076;27;93835;-74
2023/05/30 04:17:22;;;;;;;12.20;4.20;;;;;;;;;;5068380;27;93523;-74
2023/05/30 04:19:50;;;;;;;15.85;4.47;;;;;;;;;;5073866;27;92496;-74
2023/05/30 04:22:16;;;;;;;17.02;5.15;;;;;;;;;;5062095;27;93280;-74
2023/05/30 04:24:43;;;;;;;22.70;5.03;;;;;;;;;;5071029;27;93532;-76
2023/05/30 04:27:13;;;;;;;21.05;3.90;;;;;;;;;;5067464;27;91846;-76
2023/05/30 04:29:42;;;;;;;19.95;4.20;;;;;;;;;;5053454;27;93595;-76
2023/05/30 04:32:09;;;;;;;15.07;4.68;;;;;;;;;;5066902;27;92418;-77
2023/05/30 04:34:35;;;;;;;13.07;4.05;;;;;;;;;;5041696;27;95732;-74
2023/05/30 04:37:04;;;;;;;22.02;4.68;;;;;;;;;;5034438;27;93411;-74
2023/05/30 04:39:30;;;;;;;19.27;4.65;;;;;;;;;;5046201;27;92443;-76
2023/05/30 04:41:57;;;;;;;13.68;3.95;;;;;;;;;;5051480;27;93683;-77
2023/05/30 04:44:23;;;;;;;18.15;4.55;;;;;;;;;;5056364;27;93782;-76
2023/05/30 04:46:49;;;;;;;25.42;4.97;;;;;;;;;;5041697;27;92466;-77
2023/05/30 04:49:16;;;;;;;12.60;3.80;;;;;;;;;;5061517;27;93344;-72
2023/05/30 04:51:43;;;;;;;13.05;4.13;;;;;;;;;;5061898;27;91721;-74
2023/05/30 04:54:09;;;;;;;16.67;4.13;;;;;;;;;;5051177;27;92616;-76
2023/05/30 04:56:36;;;;;;;18.10;4.35;;;;;;;;;;5054586;27;93445;-76
2023/05/30 04:59:02;;;;;;;14.77;4.10;;;;;;;;;;5032825;27;94966;-76
2023/05/30 05:01:29;;;;;;;19.67;4.88;;;;;;;;;;5052364;27;95733;-76
2023/05/30 05:03:55;;;;;;;18.02;4.10;;;;;;;;;;5035973;27;93753;-75
2023/05/30 05:06:22;;;;;;;19.80;5.07;;;;;;;;;;5056798;27;93839;-76
2023/05/30 05:08:48;;;;;;;13.35;4.03;;;;;;;;;;5076996;27;93469;-76
2023/05/30 05:11:15;;;;;;;14.60;3.60;;;;;;;;;;5078536;27;92420;-76
2023/05/30 05:13:41;;;;;;;14.73;3.75;;;;;;;;;;5071433;27;93261;-77
2023/05/30 05:16:08;;;;;;;17.48;3.63;;;;;;;;;;5072640;27;92997;-76
2023/05/30 05:18:34;;;;;;;16.58;4.07;;;;;;;;;;5056650;27;92457;-76
2023/05/30 05:21:01;;;;;;;16.75;3.65;;;;;;;;;;5055525;27;93217;-76
2023/05/30 05:23:28;;;;;;;20.60;4.05;;;;;;;;;;5063085;27;95840;-76
2023/05/30 05:25:56;;;;;;;16.77;4.07;;;;;;;;;;5075382;27;92715;-75
2023/05/30 05:28:23;;;;;;;17.75;4.13;;;;;;;;;;5062530;27;93261;-75
2023/05/30 05:30:49;;;;;;;14.70;3.63;;;;;;;;;;5074812;27;93744;-76
2023/05/30 05:33:16;;;;;;;11.82;3.28;;;;;;;;;;5057033;27;92525;-76
2023/05/30 05:35:45;;;;;;;19.52;4.60;;;;;;;;;;5055433;27;93383;-75
2023/05/30 05:38:12;;;;;;;23.52;4.28;;;;;;;;;;5057444;27;94091;-76
2023/05/30 05:40:38;;;;;;;16.65;3.67;;;;;;;;;;5059543;27;93265;-75
2023/05/30 05:43:05;;;;;;;10.48;3.47;;;;;;;;;;5060938;27;93719;-76
2023/05/30 05:45:32;;;;;;;15.55;3.72;;;;;;;;;;5029847;27;92622;-76
2023/05/30 05:47:58;;;;;;;18.52;3.88;;;;;;;;;;5066080;27;95202;-78
2023/05/30 05:50:24;;;;;;;18.55;4.05;;;;;;;;;;5060672;27;92536;-77
2023/05/30 05:52:51;;;;;;;12.57;3.40;;;;;;;;;;5056781;27;92406;-76
2023/05/30 05:55:17;;;;;;;12.82;3.15;;;;;;;;;;5053860;27;93133;-76
2023/05/30 05:57:43;;;;;;;21.70;4.03;;;;;;;;;;5053790;27;92992;-76
2023/05/30 06:00:10;;;;;;;16.40;3.58;;;;;;;;;;5060274;27;92417;-76
2023/05/30 06:02:36;;;;;;;15.80;3.97;;;;;;;;;;5044205;27;92605;-76
2023/05/30 06:05:03;;;;;;;26.40;4.22;;;;;;;;;;5058511;27;92234;-77
2023/05/30 06:07:30;;;;;;;15.55;4.05;;;;;;;;;;5063303;27;95490;-76
2023/05/30 06:09:56;;;;;;;14.13;3.72;;;;;;;;;;5055502;27;93412;-77
2023/05/30 06:12:22;;;;;;;25.55;4.13;;;;;;;;;;5054469;27;95087;-79
2023/05/30 06:14:49;;;;;;;16.25;3.78;;;;;;;;;;5059420;27;96595;-75
2023/05/30 06:17:15;;;;;;;16.65;3.83;;;;;;;;;;5055226;27;92457;-76
2023/05/30 06:19:42;;;;;;;18.50;4.07;;;;;;;;;;5054827;27;93090;-76
2023/05/30 06:22:08;;;;;;;30.75;4.20;;;;;;;;;;5055505;27;93415;-76
2023/05/30 06:24:36;;;;;;;18.08;4.03;;;;;;;;;;5055205;27;92486;-76
2023/05/30 06:27:02;;;;;;;14.07;3.42;;;;;;;;;;5055894;27;93312;-76
2023/05/30 06:29:29;;;;;;;17.30;4.03;;;;;;;;;;5053868;27;92879;-75
2023/05/30 06:31:58;;;;;;;16.55;3.55;;;;;;;;;;5043579;27;93790;-76
2023/05/30 06:34:41;;;;;;;14.65;3.25;;;;;;;;;;5055612;27;93451;-76
2023/05/30 06:37:07;;;;;;;16.85;3.80;;;;;;;;;;5061603;27;95850;-76
2023/05/30 06:39:33;;;;;;;18.83;4.43;;;;;;;;;;5070099;27;95544;-76
2023/05/30 06:42:02;;;;;;;18.10;3.88;;;;;;;;;;5054051;27;93415;-76
2023/05/30 06:44:28;;;;;;;17.08;4.03;;;;;;;;;;5062076;27;92587;-75
2023/05/30 06:46:55;;;;;;;25.70;4.63;;;;;;;;;;5060333;27;93200;-76
2023/05/30 06:49:22;;;;;;;24.73;4.47;;;;;;;;;;5073839;27;92479;-76
2023/05/30 06:51:48;;;;;;;24.13;4.28;;;;;;;;;;5064134;27;92654;-76
2023/05/30 06:54:14;;;;;;;17.17;3.97;;;;;;;;;;5052855;27;93142;-76
2023/05/30 06:56:41;;;;;;;21.05;4.18;;;;;;;;;;5054084;27;93425;-75
2023/05/30 06:59:07;;;;;;;16.10;4.10;;;;;;;;;;5057813;27;92495;-76
2023/05/30 07:01:33;;;;;;;24.20;4.80;;;;;;;;;;5051575;27;95098;-76
2023/05/30 07:04:00;;;;;;;19.02;3.40;;;;;;;;;;5055742;27;92487;-75
2023/05/30 07:06:26;;;;;;;17.42;4.22;;;;;;;;;;5060311;27;96119;-75
2023/05/30 07:08:53;;;;;;;14.85;3.80;;;;;;;;;;5047046;27;93397;-75
2023/05/30 07:11:19;;;;;;;16.10;4.45;;;;;;;;;;5034895;28;92386;-76
2023/05/30 07:13:46;;;;;;;14.40;4.47;;;;;;;;;;5047732;27;93200;-75
2023/05/30 07:16:12;;;;;;;15.27;3.22;;;;;;;;;;5037884;27;93274;-75
2023/05/30 07:18:38;;;;;;;19.23;3.97;;;;;;;;;;5044793;27;91693;-75
2023/05/30 07:21:07;;;;;;;16.67;4.03;;;;;;;;;;5057667;27;92465;-76
2023/05/30 07:23:34;;;;;;;11.65;3.70;;;;;;;;;;5045608;27;92472;-76
2023/05/30 07:26:00;;;;;;;20.08;4.90;;;;;;;;;;5045407;27;95789;-75
2023/05/30 07:28:27;;;;;;;20.38;4.00;;;;;;;;;;5063391;27;93467;-76
2023/05/30 07:30:53;;;;;;;14.10;4.20;;;;;;;;;;5057026;27;92587;-76
2023/05/30 07:33:20;;;;;;;17.45;4.68;;;;;;;;;;5053938;27;93239;-76
2023/05/30 07:35:46;;;;;;;19.45;4.75;;;;;;;;;;5044202;27;93392;-76
2023/05/30 07:38:12;;;;;;;15.77;4.40;;;;;;;;;;5053999;27;92625;-76
2023/05/30 07:40:39;;;;;;;17.75;4.32;;;;;;;;;;5054030;27;93311;-76
2023/05/30 07:43:06;;;;;;;17.17;4.20;;;;;;;;;;5070309;27;92663;-76
2023/05/30 07:45:33;;;;;;;13.57;3.85;;;;;;;;;;5056577;27;92603;-75
2023/05/30 07:47:59;;;;;;;13.98;4.03;;;;;;;;;;5055976;27;93366;-76
2023/05/30 07:50:25;;;;;;;21.02;5.18;;;;;;;;;;5034152;27;94963;-76
2023/05/30 07:52:52;;;;;;;12.05;4.45;;;;;;;;;;5065861;27;95490;-76
2023/05/30 07:55:18;;;;;;;19.17;4.55;;;;;;;;;;5074803;27;94491;-76
2023/05/30 07:57:44;;;;;;;21.67;4.65;;;;;;;;;;5074665;27;92649;-75
2023/05/30 08:00:11;;;;;;;19.42;4.25;;;;;;;;;;5070141;27;93010;-76
2023/05/30 08:02:38;;;;;;;25.58;4.55;;;;;;;;;;5067634;27;93536;-76
2023/05/30 08:05:04;;;;;;;12.32;4.25;;;;;;;;;;5070276;27;93004;-77
2023/05/30 08:07:31;;;;;;;21.73;4.35;;;;;;;;;;5060192;27;93933;-76
2023/05/30 08:09:58;;;;;;;15.18;3.88;;;;;;;;;;5049886;27;92895;-76
2023/05/30 08:12:28;;;;;;;12.35;4.25;;;;;;;;;;5057378;27;93587;-76
2023/05/30 08:14:56;;;;;;;21.85;4.10;;;;;;;;;;5055643;27;95888;-76
2023/05/30 08:17:27;;;;;;;20.80;4.50;;;;;;;;;;5052427;27;92473;-76
2023/05/30 08:19:55;;;;;;;19.90;4.10;;;;;;;;;;5053269;27;93349;-76
2023/05/30 08:22:23;;;;;;;15.45;4.10;;;;;;;;;;5035222;27;93467;-76
2023/05/30 08:24:51;;;;;;;14.63;4.60;;;;;;;;;;5056854;27;92508;-75
2023/05/30 08:27:17;;;;;;;22.63;5.50;;;;;;;;;;5069090;27;93979;-76
2023/05/30 08:29:44;;;;;;;14.75;4.18;;;;;;;;;;5053705;27;92440;-76
2023/05/30 08:32:10;;;;;;;20.90;5.10;;;;;;;;;;5049734;27;93231;-76
2023/05/30 08:34:38;;;;;;;20.58;4.68;;;;;;;;;;5071944;27;94576;-76
2023/05/30 08:37:05;;;;;;;16.48;4.68;;;;;;;;;;5073907;27;92472;-76
2023/05/30 08:39:33;;;;;;;18.35;4.60;;;;;;;;;;5055543;27;94844;-76
2023/05/30 08:42:00;;;;;;;17.38;4.40;;;;;;;;;;5063709;27;93475;-76
2023/05/30 08:44:29;;;;;;;12.65;3.85;;;;;;;;;;5062425;27;92654;-75
2023/05/30 08:46:55;;;;;;;15.40;4.13;;;;;;;;;;5060885;27;96439;-75
2023/05/30 08:49:22;;;;;;;15.15;3.92;;;;;;;;;;5056941;27;92486;-76
2023/05/30 08:51:50;;;;;;;15.85;4.82;;;;;;;;;;5057297;27;92383;-75
2023/05/30 08:54:19;;;;;;;16.45;4.20;;;;;;;;;;5038046;27;93342;-76
2023/05/30 08:56:47;;;;;;;18.88;5.32;;;;;;;;;;5061267;27;91801;-75
2023/05/30 08:59:17;;;;;;;21.55;4.78;;;;;;;;;;5042635;27;92758;-75
2023/05/30 09:01:44;;;;;;;11.23;4.03;;;;;;;;;;5043446;27;92494;-76
2023/05/30 09:04:11;;;;;;;15.23;4.60;;;;;;;;;;5058574;27;95234;-76
2023/05/30 09:06:39;;;;;;;13.25;3.92;;;;;;;;;;5059647;27;95722;-76
2023/05/30 09:09:09;;;;;;;14.05;4.00;;;;;;;;;;5059902;27;92453;-77
2023/05/30 09:11:35;;;;;;;16.33;4.30;;;;;;;;;;5056994;27;93687;-76
2023/05/30 09:14:02;;;;;;;12.38;4.20;;;;;;;;;;5056935;27;93627;-76
2023/05/30 09:16:28;;;;;;;18.98;4.63;;;;;;;;;;5056975;27;92969;-76
2023/05/30 09:18:55;;;;;;;19.00;4.55;;;;;;;;;;5056624;27;93334;-76
2023/05/30 09:21:23;;;;;;;19.60;4.72;;;;;;;;;;5057069;27;93113;-76
2023/05/30 09:23:50;;;;;;;12.95;4.18;;;;;;;;;;5056632;27;92495;-76
2023/05/30 09:26:18;;;;;;;13.65;4.50;;;;;;;;;;5057034;27;93198;-76
2023/05/30 09:28:46;;;;;;;21.77;4.30;;;;;;;;;;5055300;27;95819;-76
2023/05/30 09:31:14;;;;;;;23.02;4.80;;;;;;;;;;5059631;27;92463;-76
2023/05/30 09:33:45;;;;;;;20.63;4.70;;;;;;;;;;5057333;27;93322;-76
2023/05/30 09:36:21;;;;;;;26.23;4.75;;;;;;;;;;5056731;27;92520;-76
2023/05/30 09:38:51;;;;;;;17.23;4.97;;;;;;;;;;5055934;27;92470;-76
2023/05/30 09:41:18;;;;;;;15.85;4.47;;;;;;;;;;5056355;27;93726;-76
2023/05/30 09:43:45;;;;;;;18.92;4.43;;;;;;;;;;5056492;27;92521;-76
2023/05/30 09:46:14;;;;;;;20.17;4.87;;;;;;;;;;5056637;27;93625;-76
2023/05/30 09:48:41;;;;;;;22.15;4.45;;;;;;;;;;5056766;27;93669;-77
2023/05/30 09:51:08;;;;;;;20.10;4.43;;;;;;;;;;5038762;27;92600;-77
2023/05/30 09:53:35;;;;;;;19.45;4.57;;;;;;;;;;5056539;27;95037;-76
2023/05/30 09:56:02;;;;;;;22.40;5.13;;;;;;;;;;5056361;27;92436;-76
2023/05/30 09:58:28;;;;;;;15.57;4.13;;;;;;;;;;5056344;27;92461;-76
2023/05/30 10:00:56;;;;;;;21.90;4.55;;;;;;;;;;5055595;27;92443;-76
2023/05/30 10:03:42;;;;;;;20.10;4.40;;;;;;;;;;5056119;27;92494;-76
2023/05/30 10:06:15;;;;;;;14.50;4.63;;;;;;;;;;5056343;27;93389;-76
2023/05/30 10:08:45;;;;;;;24.80;4.68;;;;;;;;;;5055951;27;93463;-76
2023/05/30 10:11:12;;;;;;;15.10;4.45;;;;;;;;;;5057067;27;92261;-76
2023/05/30 10:13:39;;;;;;;10.63;4.10;;;;;;;;;;5040673;27;92648;-76
2023/05/30 10:16:11;;;;;;;12.93;4.30;;;;;;;;;;5056196;27;92444;-76
2023/05/30 10:18:46;;;;;;;17.98;4.70;;;;;;;;;;5054158;27;94850;-75
2023/05/30 10:21:14;;;;;;;16.40;4.85;;;;;;;;;;5055615;27;93772;-75
2023/05/30 10:23:41;;;;;;;18.02;4.45;;;;;;;;;;5055825;27;92508;-75
2023/05/30 10:26:09;;;;;;;13.07;4.68;;;;;;;;;;5056351;27;93381;-76
2023/05/30 10:28:36;;;;;;;15.35;4.57;;;;;;;;;;5055246;27;93585;-76
2023/05/30 10:31:03;;;;;;;13.45;4.65;;;;;;;;;;5055899;27;92544;-76
2023/05/30 10:33:31;;;;;;;14.45;4.07;;;;;;;;;;5055990;27;93369;-76
2023/05/30 10:36:18;;;;;;;10.25;4.20;;;;;;;;;;5059327;27;92362;-76
2023/05/30 10:39:14;;;;;;;17.48;4.60;;;;;;;;;;5054258;27;92527;-75
2023/05/30 10:41:43;;;;;;;16.80;4.93;;;;;;;;;;4992002;28;93719;-76
2023/05/30 10:44:31;;;;;;;13.73;4.20;;;;;;;;;;4976023;28;95065;-77
2023/05/30 10:47:19;;;;;;;19.85;4.63;;;;;;;;;;4992487;28;95818;-76
2023/05/30 10:49:47;;;;;;;15.60;5.10;;;;;;;;;;4992849;28;93333;-76
2023/05/30 10:52:17;;;;;;;14.60;4.78;;;;;;;;;;4992584;28;92533;-77
2023/05/30 10:54:46;;;;;;;19.73;4.57;;;;;;;;;;4992578;28;92393;-76
2023/05/30 10:57:20;;;;;;;14.13;4.40;;;;;;;;;;4992515;28;93539;-76
2023/05/30 10:59:48;;;;;;;13.25;4.28;;;;;;;;;;4995127;28;92956;-75
2023/05/30 11:02:20;;;;;;;17.42;5.25;;;;;;;;;;4992972;28;92853;-76
2023/05/30 11:04:50;;;;;;;16.65;5.30;;;;;;;;;;4992016;28;92539;-77
2023/05/30 11:07:17;;;;;;;21.85;4.68;;;;;;;;;;4992481;28;93458;-76
2023/05/30 11:10:01;;;;;;;17.10;4.88;;;;;;;;;;4990508;28;96045;-75
2023/05/30 11:12:28;;;;;;;15.02;4.57;;;;;;;;;;4992071;28;92583;-76
2023/05/30 11:14:55;;;;;;;7.95;3.88;;;;;;;;;;4991420;28;93389;-75
2023/05/30 11:17:33;;;;;;;9.77;3.95;;;;;;;;;;4998899;27;94071;-76
2023/05/30 11:20:26;;;;;;;18.05;4.55;;;;;;;;;;5059989;27;92718;-75
2023/05/30 11:23:02;;;;;;;20.30;5.07;;;;;;;;;;5072489;27;93669;-75
2023/05/30 11:25:31;;;;;;;16.15;4.03;;;;;;;;;;5052941;27;92497;-75
2023/05/30 11:28:00;;;;;;;19.17;5.05;;;;;;;;;;5032531;27;93152;-75
2023/05/30 11:30:27;;;;;;;12.65;3.70;;;;;;;;;;5052740;27;93660;-75
2023/05/30 11:32:56;;;;;;;11.48;3.67;;;;;;;;;;5058488;27;92522;-75
2023/05/30 11:35:23;;;;;;;6.78;3.97;;;;;;;;;;5036273;27;95073;-74
2023/05/30 11:37:49;;;;;;;13.82;4.22;;;;;;;;;;5054854;27;93408;-74
2023/05/30 11:40:16;;;;;;;10.20;3.10;;;;;;;;;;5053246;27;92513;-75
2023/05/30 11:42:43;;;;;;;10.68;3.55;;;;;;;;;;5054943;27;93258;-76
2023/05/30 11:45:11;;;;;;;13.45;3.70;;;;;;;;;;5055666;27;93216;-75
2023/05/30 11:47:42;;;;;;;12.00;3.35;;;;;;;;;;5054563;27;93442;-75
2023/05/30 11:50:11;;;;;;;15.45;3.63;;;;;;;;;;5054200;27;93548;-75
2023/05/30 11:52:38;;;;;;;9.68;2.97;;;;;;;;;;5054086;27;91802;-75
2023/05/30 11:55:05;;;;;;;6.50;3.40;;;;;;;;;;5062877;27;92438;-75
2023/05/30 11:57:32;;;;;;;12.35;4.07;;;;;;;;;;5042660;27;95834;-74
2023/05/30 11:59:58;;;;;;;7.03;3.22;;;;;;;;;;5056424;27;94957;-75
2023/05/30 12:02:28;;;;;;;8.40;3.78;;;;;;;;;;5036471;27;95640;-75
2023/05/30 12:05:00;;;;;;;10.05;4.05;;;;;;;;;;5039169;27;93636;-75
2023/05/30 12:07:28;;;;;;;8.30;3.30;;;;;;;;;;5076092;27;94071;-75
2023/05/30 12:09:54;;;;;;;8.15;3.83;;;;;;;;;;5074131;27;93692;-75
2023/05/30 12:12:20;;;;;;;10.98;3.42;;;;;;;;;;5066125;27;92791;-75
2023/05/30 12:14:50;;;;;;;11.57;4.00;;;;;;;;;;5072219;27;93229;-75
2023/05/30 12:17:17;;;;;;;5.32;3.20;;;;;;;;;;5053442;27;92713;-75
2023/05/30 12:19:44;;;;;;;10.90;3.58;;;;;;;;;;5053703;27;92428;-75
2023/05/30 12:22:11;;;;;;;8.88;3.50;;;;;;;;;;5035896;27;93485;-75
2023/05/30 12:24:38;;;;;;;8.70;3.75;;;;;;;;;;5051898;27;96257;-75
2023/05/30 12:27:08;;;;;;;8.68;3.63;;;;;;;;;;5055084;27;92659;-75
2023/05/30 12:29:35;;;;;;;7.20;3.13;;;;;;;;;;5053502;27;92661;-75
2023/05/30 12:32:02;;;;;;;11.15;3.67;;;;;;;;;;5054273;27;92715;-75
2023/05/30 12:34:43;;;;;;;11.93;3.05;;;;;;;;;;5035952;27;93130;-75
2023/05/30 12:37:10;;;;;;;3.97;2.88;;;;;;;;;;5066690;27;93686;-75
2023/05/30 12:39:46;;;;;;;8.38;2.80;;;;;;;;;;5073716;27;92492;-75
2023/05/30 12:42:13;;;;;;;5.47;2.97;;;;;;;;;;5074799;27;92997;-75
2023/05/30 12:44:47;;;;;;;4.65;2.95;;;;;;;;;;5065874;27;94229;-75
2023/05/30 12:47:13;;;;;;;5.88;2.60;;;;;;;;;;5058997;27;94064;-75
2023/05/30 12:49:40;;;;;;;8.32;3.05;;;;;;;;;;5070840;27;94842;-74
2023/05/30 12:52:07;;;;;;;14.90;3.78;;;;;;;;;;5073124;27;92472;-75
2023/05/30 12:54:34;;;;;;;5.63;2.90;;;;;;;;;;5059933;27;93039;-74
2023/05/30 12:57:01;;;;;;;10.13;2.95;;;;;;;;;;5071762;27;93463;-75
2023/05/30 12:59:28;;;;;;;5.72;2.70;;;;;;;;;;5073720;27;92457;-74
2023/05/30 13:01:54;;;;;;;4.57;2.72;;;;;;;;;;5064762;27;93468;-75
2023/05/30 13:04:21;;;;;;;3.78;2.50;;;;;;;;;;5074055;27;94658;-74
2023/05/30 13:06:47;;;;;;;39.63;6.32;;;;;;;;;;5074080;27;91747;-74
2023/05/30 13:09:15;;;;;;;31.05;5.28;;;;;;;;;;5054344;27;92557;-74
2023/05/30 13:11:41;;;;;;;4.72;2.85;;;;;;;;;;5053499;27;93283;-74
2023/05/30 13:14:07;;;;;;;3.50;2.70;;;;;;;;;;5061986;27;94870;-75
2023/05/30 13:16:34;;;;;;;3.47;2.97;;;;;;;;;;5060245;27;93463;-74
2023/05/30 13:19:05;;;;;;;5.10;2.85;;;;;;;;;;5053236;27;92413;-74
2023/05/30 13:21:31;;;;;;;3.63;2.90;;;;;;;;;;5034103;27;93493;-75
2023/05/30 13:23:57;;;;;;;3.03;2.72;;;;;;;;;;5054135;27;94577;-75
2023/05/30 13:26:25;;;;;;;2.67;2.28;;;;;;;;;;5056559;27;92455;-74
2023/05/30 13:28:51;;;;;;;2.80;2.50;;;;;;;;;;5055915;27;93284;-76
2023/05/30 13:31:17;;;;;;;3.85;2.65;;;;;;;;;;5058080;27;92774;-74
2023/05/30 13:33:44;;;;;;;4.68;3.30;;;;;;;;;;5075265;27;92563;-75
2023/05/30 13:36:10;;;;;;;2.80;2.58;;;;;;;;;;5058311;27;93458;-75
2023/05/30 13:38:37;;;;;;;6.15;3.03;;;;;;;;;;5057121;27;95292;-75
2023/05/30 13:41:03;;;;;;;3.83;2.95;;;;;;;;;;5068395;27;96621;-75
2023/05/30 13:43:30;;;;;;;6.13;3.22;;;;;;;;;;5071580;27;93378;-75
2023/05/30 13:45:56;;;;;;;6.00;3.60;;;;;;;;;;5076261;27;92516;-75
2023/05/30 13:48:23;;;;;;;4.07;2.85;;;;;;;;;;5057924;27;92821;-74
2023/05/30 13:50:49;;;;;;;4.30;3.30;;;;;;;;;;5056011;27;93606;-75
2023/05/30 13:53:17;;;;;;;3.40;3.08;;;;;;;;;;5055116;27;92551;-74
2023/05/30 13:55:55;;;;;;;7.05;3.58;;;;;;;;;;5080082;27;92134;-75
2023/05/30 13:58:22;;;;;;;3.58;3.05;;;;;;;;;;5060962;27;93272;-75
2023/05/30 14:00:48;;;;;;;9.30;3.40;;;;;;;;;;5069325;27;93323;-75
2023/05/30 14:03:15;;;;;;;4.93;3.20;;;;;;;;;;5053859;27;96189;-75
2023/05/30 14:05:41;;;;;;;5.53;2.90;;;;;;;;;;5076507;27;92450;-75
2023/05/30 14:08:08;;;;;;;6.05;2.85;;;;;;;;;;5076231;27;93253;-75
2023/05/30 14:10:34;;;;;;;4.47;3.38;;;;;;;;;;5060740;27;93460;-75
2023/05/30 14:13:00;;;;;;;3.30;3.00;;;;;;;;;;5054121;27;92475;-75
2023/05/30 14:15:30;;;;;;;3.30;3.10;;;;;;;;;;5041184;27;93438;-75
2023/05/30 14:17:57;;;;;;;5.25;3.30;;;;;;;;;;5053885;27;92597;-75
2023/05/30 14:20:23;;;;;;;7.65;3.30;;;;;;;;;;5056115;27;93242;-75
2023/05/30 14:22:50;;;;;;;6.28;3.22;;;;;;;;;;5069287;27;93437;-75
2023/05/30 14:25:17;;;;;;;2.92;2.70;;;;;;;;;;5076330;27;92589;-75
2023/05/30 14:27:43;;;;;;;6.82;3.00;;;;;;;;;;5074750;27;94783;-75
2023/05/30 14:30:13;;;;;;;3.38;2.72;;;;;;;;;;5073766;27;93551;-75
2023/05/30 14:32:39;;;;;;;4.20;3.00;;;;;;;;;;5055063;27;92536;-75
2023/05/30 14:35:08;;;;;;;3.30;3.00;;;;;;;;;;5036935;27;93130;-74